sensor_id;sensor_type;location;lat;lon;timestamp;temperature;humidity
13806;DHT22;6974;53.606;9.872;2022-11-14T00:01:41;10.00;99.90
13806;DHT22;6974;53.606;9.872;2022-11-14T00:04:08;10.00;99.90
13806;DHT22;6974;53.606;9.872;2022-11-14T00:06:36;10.00;99.90
13806;DHT22;6974;53.606;9.872;2022-11-14T00:09:03;10.00;99.90
13806;DHT22;6974;53.606;9.872;2022-11-14T00:11:30;10.00;99.90
13806;DHT22;6974;53.606;9.872;2022-11-14T00:13:57;9.90;99.90
13806;DHT22;6974;53.606;9.872;2022-11-14T00:16:23;9.90;99.90
13806;DHT22;6974;53.606;9.872;2022-11-14T00:18:50;9.90;99.90
13806;DHT22;6974;53.606;9.872;2022-11-14T00:21:17;9.90;99.90
13806;DHT22;6974;53.606;9.872;2022-11-14T00:23:46;9.90;99.90
13806;DHT22;6974;53.606;9.872;2022-11-14T00:26:12;9.90;99.90
13806;DHT22;6974;53.606;9.872;2022-11-14T00:28:39;9.90;99.90
13806;DHT22;6974;53.606;9.872;2022-11-14T00:31:06;9.80;99.90
13806;DHT22;6974;53.606;9.872;2022-11-14T00:33:34;9.80;99.90
13806;DHT22;6974;53.606;9.872;2022-11-14T00:36:01;9.80;99.90
13806;DHT22;6974;53.606;9.872;2022-11-14T00:38:28;9.80;99.90
13806;DHT22;6974;53.606;9.872;2022-11-14T00:40:56;9.80;99.90
13806;DHT22;6974;53.606;9.872;2022-11-14T00:43:23;9.80;99.90
13806;DHT22;6974;53.606;9.872;2022-11-14T00:45:50;9.80;99.90
13806;DHT22;6974;53.606;9.872;2022-11-14T00:48:17;9.70;99.90
13806;DHT22;6974;53.606;9.872;2022-11-14T00:50:44;9.70;99.90
13806;DHT22;6974;53.606;9.872;2022-11-14T00:53:10;9.70;99.90
13806;DHT22;6974;53.606;9.872;2022-11-14T00:55:37;9.70;99.90
13806;DHT22;6974;53.606;9.872;2022-11-14T00:58:06;9.70;99.90
13806;DHT22;6974;53.606;9.872;2022-11-14T01:00:33;9.70;99.90
13806;DHT22;6974;53.606;9.872;2022-11-14T01:03:00;9.60;99.90
13806;DHT22;6974;53.606;9.872;2022-11-14T01:05:27;9.50;99.90
13806;DHT22;6974;53.606;9.872;2022-11-14T01:07:54;9.60;99.90
13806;DHT22;6974;53.606;9.872;2022-11-14T01:10:21;9.60;99.90
13806;DHT22;6974;53.606;9.872;2022-11-14T01:12:48;9.60;99.90
13806;DHT22;6974;53.606;9.872;2022-11-14T01:15:17;9.60;99.90
13806;DHT22;6974;53.606;9.872;2022-11-14T01:17:44;9.60;99.90
13806;DHT22;6974;53.606;9.872;2022-11-14T01:20:10;9.50;99.90
13806;DHT22;6974;53.606;9.872;2022-11-14T01:22:37;9.50;99.90
13806;DHT22;6974;53.606;9.872;2022-11-14T01:25:05;9.50;99.90
13806;DHT22;6974;53.606;9.872;2022-11-14T01:27:32;9.50;99.90
13806;DHT22;6974;53.606;9.872;2022-11-14T01:29:59;9.50;99.90
13806;DHT22;6974;53.606;9.872;2022-11-14T01:32:27;9.50;99.90
13806;DHT22;6974;53.606;9.872;2022-11-14T01:34:54;9.50;99.90
13806;DHT22;6974;53.606;9.872;2022-11-14T01:37:21;9.50;99.90
13806;DHT22;6974;53.606;9.872;2022-11-14T01:39:47;9.50;99.90
13806;DHT22;6974;53.606;9.872;2022-11-14T01:42:14;9.50;99.90
13806;DHT22;6974;53.606;9.872;2022-11-14T01:44:45;9.50;99.90
13806;DHT22;6974;53.606;9.872;2022-11-14T01:47:16;9.50;99.90
13806;DHT22;6974;53.606;9.872;2022-11-14T01:49:47;9.50;99.90
13806;DHT22;6974;53.606;9.872;2022-11-14T01:52:18;9.40;99.90
13806;DHT22;6974;53.606;9.872;2022-11-14T01:54:48;9.40;99.90
13806;DHT22;6974;53.606;9.872;2022-11-14T01:57:18;9.40;99.90
13806;DHT22;6974;53.606;9.872;2022-11-14T01:59:48;9.30;99.90
13806;DHT22;6974;53.606;9.872;2022-11-14T02:02:20;9.30;99.90
13806;DHT22;6974;53.606;9.872;2022-11-14T02:04:52;9.30;99.90
13806;DHT22;6974;53.606;9.872;2022-11-14T02:07:22;9.30;99.90
13806;DHT22;6974;53.606;9.872;2022-11-14T02:09:50;9.30;99.90
13806;DHT22;6974;53.606;9.872;2022-11-14T02:12:19;9.30;99.90
13806;DHT22;6974;53.606;9.872;2022-11-14T02:14:48;9.30;99.90
13806;DHT22;6974;53.606;9.872;2022-11-14T02:17:17;9.30;99.90
13806;DHT22;6974;53.606;9.872;2022-11-14T02:19:48;9.20;99.90
13806;DHT22;6974;53.606;9.872;2022-11-14T02:22:17;9.20;99.90
13806;DHT22;6974;53.606;9.872;2022-11-14T02:24:44;9.20;99.90
13806;DHT22;6974;53.606;9.872;2022-11-14T02:27:12;9.20;99.90
13806;DHT22;6974;53.606;9.872;2022-11-14T02:29:39;9.20;99.90
13806;DHT22;6974;53.606;9.872;2022-11-14T02:32:07;9.20;99.90
13806;DHT22;6974;53.606;9.872;2022-11-14T02:34:33;9.20;99.90
13806;DHT22;6974;53.606;9.872;2022-11-14T02:37:00;9.20;99.90
13806;DHT22;6974;53.606;9.872;2022-11-14T02:39:29;9.20;99.90
13806;DHT22;6974;53.606;9.872;2022-11-14T02:41:57;9.30;99.90
13806;DHT22;6974;53.606;9.872;2022-11-14T02:44:24;9.20;99.90
13806;DHT22;6974;53.606;9.872;2022-11-14T02:46:52;9.30;99.90
13806;DHT22;6974;53.606;9.872;2022-11-14T02:49:19;9.30;99.90
13806;DHT22;6974;53.606;9.872;2022-11-14T02:51:46;9.30;99.90
13806;DHT22;6974;53.606;9.872;2022-11-14T02:54:13;9.30;99.90
13806;DHT22;6974;53.606;9.872;2022-11-14T02:56:42;9.30;99.90
13806;DHT22;6974;53.606;9.872;2022-11-14T02:59:09;9.30;99.90
13806;DHT22;6974;53.606;9.872;2022-11-14T03:01:36;9.30;99.90
13806;DHT22;6974;53.606;9.872;2022-11-14T03:04:03;9.30;99.90
13806;DHT22;6974;53.606;9.872;2022-11-14T03:06:31;9.30;99.90
13806;DHT22;6974;53.606;9.872;2022-11-14T03:08:58;9.30;99.90
13806;DHT22;6974;53.606;9.872;2022-11-14T03:11:27;9.30;99.90
13806;DHT22;6974;53.606;9.872;2022-11-14T03:13:58;9.30;99.90
13806;DHT22;6974;53.606;9.872;2022-11-14T03:16:25;9.30;99.90
13806;DHT22;6974;53.606;9.872;2022-11-14T03:18:52;9.20;99.90
13806;DHT22;6974;53.606;9.872;2022-11-14T03:21:21;9.20;99.90
13806;DHT22;6974;53.606;9.872;2022-11-14T03:23:48;9.20;99.90
13806;DHT22;6974;53.606;9.872;2022-11-14T03:26:15;9.10;99.90
13806;DHT22;6974;53.606;9.872;2022-11-14T03:28:43;9.10;99.90
13806;DHT22;6974;53.606;9.872;2022-11-14T03:31:13;9.10;99.90
13806;DHT22;6974;53.606;9.872;2022-11-14T03:33:40;9.10;99.90
13806;DHT22;6974;53.606;9.872;2022-11-14T03:36:08;9.20;99.90
13806;DHT22;6974;53.606;9.872;2022-11-14T03:38:35;9.20;99.90
13806;DHT22;6974;53.606;9.872;2022-11-14T03:41:03;9.10;99.90
13806;DHT22;6974;53.606;9.872;2022-11-14T03:43:31;9.20;99.90
13806;DHT22;6974;53.606;9.872;2022-11-14T03:46:00;9.20;99.90
13806;DHT22;6974;53.606;9.872;2022-11-14T03:48:29;9.10;99.90
13806;DHT22;6974;53.606;9.872;2022-11-14T03:50:56;9.10;99.90
13806;DHT22;6974;53.606;9.872;2022-11-14T03:53:24;9.10;99.90
13806;DHT22;6974;53.606;9.872;2022-11-14T03:55:53;9.10;99.90
13806;DHT22;6974;53.606;9.872;2022-11-14T03:58:20;9.10;99.90
13806;DHT22;6974;53.606;9.872;2022-11-14T04:00:47;9.10;99.90
13806;DHT22;6974;53.606;9.872;2022-11-14T04:03:14;9.10;99.90
13806;DHT22;6974;53.606;9.872;2022-11-14T04:05:44;9.10;99.90
13806;DHT22;6974;53.606;9.872;2022-11-14T04:08:11;9.20;99.90
13806;DHT22;6974;53.606;9.872;2022-11-14T04:10:38;9.20;99.90
13806;DHT22;6974;53.606;9.872;2022-11-14T04:13:06;9.20;99.90
13806;DHT22;6974;53.606;9.872;2022-11-14T04:15:34;9.20;99.90
13806;DHT22;6974;53.606;9.872;2022-11-14T04:18:01;9.20;99.90
13806;DHT22;6974;53.606;9.872;2022-11-14T04:20:28;9.20;99.90
13806;DHT22;6974;53.606;9.872;2022-11-14T04:22:57;9.20;99.90
13806;DHT22;6974;53.606;9.872;2022-11-14T04:25:24;9.20;99.90
13806;DHT22;6974;53.606;9.872;2022-11-14T04:27:52;9.20;99.90
13806;DHT22;6974;53.606;9.872;2022-11-14T04:30:19;9.10;99.90
13806;DHT22;6974;53.606;9.872;2022-11-14T04:32:46;9.10;99.90
13806;DHT22;6974;53.606;9.872;2022-11-14T04:35:14;9.10;99.90
13806;DHT22;6974;53.606;9.872;2022-11-14T04:37:41;9.10;99.90
13806;DHT22;6974;53.606;9.872;2022-11-14T04:40:12;9.20;99.90
13806;DHT22;6974;53.606;9.872;2022-11-14T04:42:39;9.20;99.90
13806;DHT22;6974;53.606;9.872;2022-11-14T04:45:08;9.10;99.90
13806;DHT22;6974;53.606;9.872;2022-11-14T04:47:35;9.10;99.90
13806;DHT22;6974;53.606;9.872;2022-11-14T04:50:03;9.10;99.90
13806;DHT22;6974;53.606;9.872;2022-11-14T04:52:30;9.10;99.90
13806;DHT22;6974;53.606;9.872;2022-11-14T04:54:58;9.10;99.90
13806;DHT22;6974;53.606;9.872;2022-11-14T04:57:26;9.10;99.90
13806;DHT22;6974;53.606;9.872;2022-11-14T04:59:54;9.20;99.90
13806;DHT22;6974;53.606;9.872;2022-11-14T05:02:23;9.10;99.90
13806;DHT22;6974;53.606;9.872;2022-11-14T05:04:51;9.20;99.90
13806;DHT22;6974;53.606;9.872;2022-11-14T05:07:18;9.20;99.90
13806;DHT22;6974;53.606;9.872;2022-11-14T05:09:45;9.20;99.90
13806;DHT22;6974;53.606;9.872;2022-11-14T05:12:12;9.20;99.90
13806;DHT22;6974;53.606;9.872;2022-11-14T05:14:41;9.20;99.90
13806;DHT22;6974;53.606;9.872;2022-11-14T05:17:09;9.20;99.90
13806;DHT22;6974;53.606;9.872;2022-11-14T05:19:37;9.20;99.90
13806;DHT22;6974;53.606;9.872;2022-11-14T05:22:06;9.20;99.90
13806;DHT22;6974;53.606;9.872;2022-11-14T05:24:33;9.20;99.90
13806;DHT22;6974;53.606;9.872;2022-11-14T05:27:01;9.10;99.90
13806;DHT22;6974;53.606;9.872;2022-11-14T05:29:28;9.10;99.90
13806;DHT22;6974;53.606;9.872;2022-11-14T05:31:57;9.10;99.90
13806;DHT22;6974;53.606;9.872;2022-11-14T05:34:25;9.10;99.90
13806;DHT22;6974;53.606;9.872;2022-11-14T05:36:52;9.10;99.90
13806;DHT22;6974;53.606;9.872;2022-11-14T05:39:20;9.10;99.90
13806;DHT22;6974;53.606;9.872;2022-11-14T05:41:47;9.10;99.90
13806;DHT22;6974;53.606;9.872;2022-11-14T05:44:14;9.20;99.90
13806;DHT22;6974;53.606;9.872;2022-11-14T05:46:42;9.10;99.90
13806;DHT22;6974;53.606;9.872;2022-11-14T05:49:11;9.10;99.90
13806;DHT22;6974;53.606;9.872;2022-11-14T05:51:38;9.20;99.90
13806;DHT22;6974;53.606;9.872;2022-11-14T05:54:06;9.20;99.90
13806;DHT22;6974;53.606;9.872;2022-11-14T05:56:34;9.20;99.90
13806;DHT22;6974;53.606;9.872;2022-11-14T05:59:01;9.20;99.90
13806;DHT22;6974;53.606;9.872;2022-11-14T06:01:30;9.10;99.90
13806;DHT22;6974;53.606;9.872;2022-11-14T06:03:57;9.20;99.90
13806;DHT22;6974;53.606;9.872;2022-11-14T06:06:25;9.10;99.90
13806;DHT22;6974;53.606;9.872;2022-11-14T06:08:53;9.10;99.90
13806;DHT22;6974;53.606;9.872;2022-11-14T06:11:20;9.10;99.90
13806;DHT22;6974;53.606;9.872;2022-11-14T06:13:47;9.10;99.90
13806;DHT22;6974;53.606;9.872;2022-11-14T06:16:16;9.10;99.90
13806;DHT22;6974;53.606;9.872;2022-11-14T06:18:45;9.10;99.90
13806;DHT22;6974;53.606;9.872;2022-11-14T06:21:14;9.10;99.90
13806;DHT22;6974;53.606;9.872;2022-11-14T06:23:44;9.10;99.90
13806;DHT22;6974;53.606;9.872;2022-11-14T06:26:15;9.10;99.90
13806;DHT22;6974;53.606;9.872;2022-11-14T06:28:45;9.10;99.90
13806;DHT22;6974;53.606;9.872;2022-11-14T06:31:14;9.10;99.90
13806;DHT22;6974;53.606;9.872;2022-11-14T06:33:41;9.10;99.90
13806;DHT22;6974;53.606;9.872;2022-11-14T06:36:09;9.10;99.90
13806;DHT22;6974;53.606;9.872;2022-11-14T06:38:38;9.10;99.90
13806;DHT22;6974;53.606;9.872;2022-11-14T06:41:10;9.00;99.90
13806;DHT22;6974;53.606;9.872;2022-11-14T06:43:38;9.00;99.90
13806;DHT22;6974;53.606;9.872;2022-11-14T06:46:07;9.00;99.90
13806;DHT22;6974;53.606;9.872;2022-11-14T06:48:35;9.00;99.90
13806;DHT22;6974;53.606;9.872;2022-11-14T06:51:04;9.00;99.90
13806;DHT22;6974;53.606;9.872;2022-11-14T06:53:34;9.00;99.90
13806;DHT22;6974;53.606;9.872;2022-11-14T06:56:04;9.00;99.90
13806;DHT22;6974;53.606;9.872;2022-11-14T06:58:37;9.00;99.90
13806;DHT22;6974;53.606;9.872;2022-11-14T07:01:05;9.10;99.90
13806;DHT22;6974;53.606;9.872;2022-11-14T07:03:33;9.10;99.90
13806;DHT22;6974;53.606;9.872;2022-11-14T07:06:01;9.10;99.90
13806;DHT22;6974;53.606;9.872;2022-11-14T07:08:29;9.20;99.90
13806;DHT22;6974;53.606;9.872;2022-11-14T07:11:00;9.20;99.90
13806;DHT22;6974;53.606;9.872;2022-11-14T07:13:29;9.20;99.90
13806;DHT22;6974;53.606;9.872;2022-11-14T07:15:58;9.10;99.90
13806;DHT22;6974;53.606;9.872;2022-11-14T07:18:26;9.10;99.90
13806;DHT22;6974;53.606;9.872;2022-11-14T07:20:58;9.20;99.90
13806;DHT22;6974;53.606;9.872;2022-11-14T07:23:26;9.20;99.90
13806;DHT22;6974;53.606;9.872;2022-11-14T07:25:54;9.20;99.90
13806;DHT22;6974;53.606;9.872;2022-11-14T07:28:21;9.10;99.90
13806;DHT22;6974;53.606;9.872;2022-11-14T07:30:48;9.10;99.90
13806;DHT22;6974;53.606;9.872;2022-11-14T07:33:17;9.00;99.90
13806;DHT22;6974;53.606;9.872;2022-11-14T07:35:44;9.00;99.90
13806;DHT22;6974;53.606;9.872;2022-11-14T07:38:11;9.00;99.90
13806;DHT22;6974;53.606;9.872;2022-11-14T07:40:38;9.00;99.90
13806;DHT22;6974;53.606;9.872;2022-11-14T07:43:07;9.00;99.90
13806;DHT22;6974;53.606;9.872;2022-11-14T07:45:34;8.90;99.90
13806;DHT22;6974;53.606;9.872;2022-11-14T07:48:01;8.90;99.90
13806;DHT22;6974;53.606;9.872;2022-11-14T07:50:31;8.90;99.90
13806;DHT22;6974;53.606;9.872;2022-11-14T07:52:58;8.90;99.90
13806;DHT22;6974;53.606;9.872;2022-11-14T07:55:25;9.00;99.90
13806;DHT22;6974;53.606;9.872;2022-11-14T07:57:53;8.90;99.90
13806;DHT22;6974;53.606;9.872;2022-11-14T08:00:20;9.00;99.90
13806;DHT22;6974;53.606;9.872;2022-11-14T08:02:48;9.00;99.90
13806;DHT22;6974;53.606;9.872;2022-11-14T08:05:15;9.00;99.90
13806;DHT22;6974;53.606;9.872;2022-11-14T08:07:44;9.00;99.90
13806;DHT22;6974;53.606;9.872;2022-11-14T08:10:12;9.00;99.90
13806;DHT22;6974;53.606;9.872;2022-11-14T08:12:40;9.00;99.90
13806;DHT22;6974;53.606;9.872;2022-11-14T08:15:08;9.00;99.90
13806;DHT22;6974;53.606;9.872;2022-11-14T08:17:36;8.90;99.90
13806;DHT22;6974;53.606;9.872;2022-11-14T08:20:04;8.90;99.90
13806;DHT22;6974;53.606;9.872;2022-11-14T08:22:32;8.90;99.90
13806;DHT22;6974;53.606;9.872;2022-11-14T08:25:01;8.90;99.90
13806;DHT22;6974;53.606;9.872;2022-11-14T08:27:28;8.90;99.90
13806;DHT22;6974;53.606;9.872;2022-11-14T08:29:56;8.90;99.90
13806;DHT22;6974;53.606;9.872;2022-11-14T08:32:23;8.90;99.90
13806;DHT22;6974;53.606;9.872;2022-11-14T08:34:50;8.90;99.90
13806;DHT22;6974;53.606;9.872;2022-11-14T08:37:17;8.90;99.90
13806;DHT22;6974;53.606;9.872;2022-11-14T08:39:44;8.90;99.90
13806;DHT22;6974;53.606;9.872;2022-11-14T08:42:13;9.00;99.90
13806;DHT22;6974;53.606;9.872;2022-11-14T08:44:40;9.00;99.90
13806;DHT22;6974;53.606;9.872;2022-11-14T08:47:07;9.00;99.90
13806;DHT22;6974;53.606;9.872;2022-11-14T08:49:33;9.00;99.90
13806;DHT22;6974;53.606;9.872;2022-11-14T08:52:00;9.00;99.90
13806;DHT22;6974;53.606;9.872;2022-11-14T08:54:28;9.10;99.90
13806;DHT22;6974;53.606;9.872;2022-11-14T08:56:55;9.00;99.90
13806;DHT22;6974;53.606;9.872;2022-11-14T08:59:23;9.00;99.90
13806;DHT22;6974;53.606;9.872;2022-11-14T09:01:50;9.10;99.90
13806;DHT22;6974;53.606;9.872;2022-11-14T09:04:17;9.10;99.90
13806;DHT22;6974;53.606;9.872;2022-11-14T09:06:44;9.10;99.90
13806;DHT22;6974;53.606;9.872;2022-11-14T09:09:11;9.10;99.90
13806;DHT22;6974;53.606;9.872;2022-11-14T09:11:38;9.10;99.90
13806;DHT22;6974;53.606;9.872;2022-11-14T09:14:05;9.10;99.90
13806;DHT22;6974;53.606;9.872;2022-11-14T09:16:33;9.10;99.90
13806;DHT22;6974;53.606;9.872;2022-11-14T09:19:01;9.10;99.90
13806;DHT22;6974;53.606;9.872;2022-11-14T09:21:27;9.20;99.90
13806;DHT22;6974;53.606;9.872;2022-11-14T09:23:54;9.10;99.90
13806;DHT22;6974;53.606;9.872;2022-11-14T09:26:21;9.10;99.90
13806;DHT22;6974;53.606;9.872;2022-11-14T09:28:48;9.10;99.90
13806;DHT22;6974;53.606;9.872;2022-11-14T09:31:15;9.10;99.90
13806;DHT22;6974;53.606;9.872;2022-11-14T09:33:43;9.00;99.90
13806;DHT22;6974;53.606;9.872;2022-11-14T09:36:11;9.00;99.90
13806;DHT22;6974;53.606;9.872;2022-11-14T09:38:40;9.00;99.90
13806;DHT22;6974;53.606;9.872;2022-11-14T09:41:22;9.00;99.90
13806;DHT22;6974;53.606;9.872;2022-11-14T09:44:05;9.00;99.90
13806;DHT22;6974;53.606;9.872;2022-11-14T09:46:39;8.90;99.90
13806;DHT22;6974;53.606;9.872;2022-11-14T09:49:21;8.90;99.90
13806;DHT22;6974;53.606;9.872;2022-11-14T09:51:55;8.90;99.90
13806;DHT22;6974;53.606;9.872;2022-11-14T09:54:24;9.00;99.90
13806;DHT22;6974;53.606;9.872;2022-11-14T09:56:53;9.00;99.90
13806;DHT22;6974;53.606;9.872;2022-11-14T09:59:20;9.00;99.90
13806;DHT22;6974;53.606;9.872;2022-11-14T10:01:53;9.00;99.90
13806;DHT22;6974;53.606;9.872;2022-11-14T10:04:30;9.00;99.90
13806;DHT22;6974;53.606;9.872;2022-11-14T10:07:12;9.00;99.90
13806;DHT22;6974;53.606;9.872;2022-11-14T10:09:51;9.10;99.90
13806;DHT22;6974;53.606;9.872;2022-11-14T10:12:21;9.10;99.90
13806;DHT22;6974;53.606;9.872;2022-11-14T10:15:16;9.10;99.90
13806;DHT22;6974;53.606;9.872;2022-11-14T10:18:11;9.20;99.90
13806;DHT22;6974;53.606;9.872;2022-11-14T10:20:45;9.20;99.90
13806;DHT22;6974;53.606;9.872;2022-11-14T10:23:22;9.10;99.90
13806;DHT22;6974;53.606;9.872;2022-11-14T10:25:57;9.10;99.90
13806;DHT22;6974;53.606;9.872;2022-11-14T10:28:39;9.10;99.90
13806;DHT22;6974;53.606;9.872;2022-11-14T10:31:16;9.10;99.90
13806;DHT22;6974;53.606;9.872;2022-11-14T10:33:51;9.20;99.90
13806;DHT22;6974;53.606;9.872;2022-11-14T10:36:49;9.20;99.90
13806;DHT22;6974;53.606;9.872;2022-11-14T10:39:21;9.20;99.90
13806;DHT22;6974;53.606;9.872;2022-11-14T10:41:52;9.20;99.90
13806;DHT22;6974;53.606;9.872;2022-11-14T10:44:24;9.20;99.90
13806;DHT22;6974;53.606;9.872;2022-11-14T10:46:55;9.20;99.90
13806;DHT22;6974;53.606;9.872;2022-11-14T10:49:25;9.20;99.90
13806;DHT22;6974;53.606;9.872;2022-11-14T10:51:55;9.20;99.90
13806;DHT22;6974;53.606;9.872;2022-11-14T10:54:26;9.20;99.90
13806;DHT22;6974;53.606;9.872;2022-11-14T10:56:56;9.30;99.90
13806;DHT22;6974;53.606;9.872;2022-11-14T10:59:23;9.30;99.90
13806;DHT22;6974;53.606;9.872;2022-11-14T11:01:53;9.40;99.90
13806;DHT22;6974;53.606;9.872;2022-11-14T11:04:25;9.40;99.90
13806;DHT22;6974;53.606;9.872;2022-11-14T11:06:55;9.50;99.90
13806;DHT22;6974;53.606;9.872;2022-11-14T11:09:24;9.50;99.90
13806;DHT22;6974;53.606;9.872;2022-11-14T11:12:14;9.60;99.90
13806;DHT22;6974;53.606;9.872;2022-11-14T11:14:42;9.50;99.90
13806;DHT22;6974;53.606;9.872;2022-11-14T11:17:20;9.60;99.90
13806;DHT22;6974;53.606;9.872;2022-11-14T11:19:48;9.70;99.90
13806;DHT22;6974;53.606;9.872;2022-11-14T11:22:35;9.80;99.90
13806;DHT22;6974;53.606;9.872;2022-11-14T11:25:02;9.90;99.90
13806;DHT22;6974;53.606;9.872;2022-11-14T11:27:29;9.90;99.90
13806;DHT22;6974;53.606;9.872;2022-11-14T11:30:06;9.80;99.90
13806;DHT22;6974;53.606;9.872;2022-11-14T11:32:34;9.90;99.90
13806;DHT22;6974;53.606;9.872;2022-11-14T11:35:05;10.00;99.90
13806;DHT22;6974;53.606;9.872;2022-11-14T11:37:39;10.00;99.90
13806;DHT22;6974;53.606;9.872;2022-11-14T11:40:14;10.10;99.90
13806;DHT22;6974;53.606;9.872;2022-11-14T11:42:46;10.10;99.90
13806;DHT22;6974;53.606;9.872;2022-11-14T11:45:17;10.10;99.90
13806;DHT22;6974;53.606;9.872;2022-11-14T11:47:49;10.20;99.90
13806;DHT22;6974;53.606;9.872;2022-11-14T11:50:18;10.20;99.90
13806;DHT22;6974;53.606;9.872;2022-11-14T11:52:51;10.30;99.90
13806;DHT22;6974;53.606;9.872;2022-11-14T11:55:25;10.40;99.90
13806;DHT22;6974;53.606;9.872;2022-11-14T11:58:00;10.40;99.90
13806;DHT22;6974;53.606;9.872;2022-11-14T12:00:28;10.40;99.90
13806;DHT22;6974;53.606;9.872;2022-11-14T12:02:55;10.40;99.90
13806;DHT22;6974;53.606;9.872;2022-11-14T12:05:26;10.50;99.90
13806;DHT22;6974;53.606;9.872;2022-11-14T12:08:00;10.50;99.90
13806;DHT22;6974;53.606;9.872;2022-11-14T12:10:31;10.60;99.90
13806;DHT22;6974;53.606;9.872;2022-11-14T12:16:00;10.60;99.90
13806;DHT22;6974;53.606;9.872;2022-11-14T12:18:47;10.60;99.90
13806;DHT22;6974;53.606;9.872;2022-11-14T12:21:29;10.60;99.90
13806;DHT22;6974;53.606;9.872;2022-11-14T12:27:16;10.70;99.90
13806;DHT22;6974;53.606;9.872;2022-11-14T12:29:59;10.70;99.90
13806;DHT22;6974;53.606;9.872;2022-11-14T12:32:31;10.70;99.90
13806;DHT22;6974;53.606;9.872;2022-11-14T12:35:02;10.80;99.90
13806;DHT22;6974;53.606;9.872;2022-11-14T12:37:32;10.80;99.90
13806;DHT22;6974;53.606;9.872;2022-11-14T12:40:03;10.80;99.90
13806;DHT22;6974;53.606;9.872;2022-11-14T12:42:31;10.80;99.90
13806;DHT22;6974;53.606;9.872;2022-11-14T12:44:58;10.90;99.90
13806;DHT22;6974;53.606;9.872;2022-11-14T12:47:26;10.90;99.90
13806;DHT22;6974;53.606;9.872;2022-11-14T12:52:47;10.90;99.90
13806;DHT22;6974;53.606;9.872;2022-11-14T12:55:53;10.90;99.90
13806;DHT22;6974;53.606;9.872;2022-11-14T12:58:34;10.90;99.90
13806;DHT22;6974;53.606;9.872;2022-11-14T13:04:14;10.90;99.90
13806;DHT22;6974;53.606;9.872;2022-11-14T13:06:50;10.90;99.90
13806;DHT22;6974;53.606;9.872;2022-11-14T13:09:52;10.90;99.90
13806;DHT22;6974;53.606;9.872;2022-11-14T13:12:34;10.90;99.90
13806;DHT22;6974;53.606;9.872;2022-11-14T13:15:25;10.90;99.90
13806;DHT22;6974;53.606;9.872;2022-11-14T13:18:17;10.80;99.90
13806;DHT22;6974;53.606;9.872;2022-11-14T13:21:03;10.80;99.90
13806;DHT22;6974;53.606;9.872;2022-11-14T13:23:55;10.80;99.90
13806;DHT22;6974;53.606;9.872;2022-11-14T13:26:36;10.80;99.90
13806;DHT22;6974;53.606;9.872;2022-11-14T13:29:05;10.80;99.90
13806;DHT22;6974;53.606;9.872;2022-11-14T13:31:50;10.90;99.90
13806;DHT22;6974;53.606;9.872;2022-11-14T13:34:39;10.90;99.90
13806;DHT22;6974;53.606;9.872;2022-11-14T13:37:18;10.90;99.90
13806;DHT22;6974;53.606;9.872;2022-11-14T13:39:56;10.90;99.90
13806;DHT22;6974;53.606;9.872;2022-11-14T13:42:39;10.90;99.90
13806;DHT22;6974;53.606;9.872;2022-11-14T13:45:44;10.90;99.90
13806;DHT22;6974;53.606;9.872;2022-11-14T13:48:45;10.80;99.90
13806;DHT22;6974;53.606;9.872;2022-11-14T13:51:16;10.90;99.90
13806;DHT22;6974;53.606;9.872;2022-11-14T13:53:44;10.90;99.90
13806;DHT22;6974;53.606;9.872;2022-11-14T13:56:24;10.90;99.90
13806;DHT22;6974;53.606;9.872;2022-11-14T13:59:19;11.00;99.90
13806;DHT22;6974;53.606;9.872;2022-11-14T14:02:14;11.00;99.90
13806;DHT22;6974;53.606;9.872;2022-11-14T14:04:50;11.00;99.90
13806;DHT22;6974;53.606;9.872;2022-11-14T14:07:25;11.00;99.90
13806;DHT22;6974;53.606;9.872;2022-11-14T14:10:02;11.00;99.90
13806;DHT22;6974;53.606;9.872;2022-11-14T14:12:50;11.00;99.90
13806;DHT22;6974;53.606;9.872;2022-11-14T14:15:24;10.90;99.90
13806;DHT22;6974;53.606;9.872;2022-11-14T14:18:05;10.90;99.90
13806;DHT22;6974;53.606;9.872;2022-11-14T14:20:44;10.90;99.90
13806;DHT22;6974;53.606;9.872;2022-11-14T14:23:23;10.90;99.90
13806;DHT22;6974;53.606;9.872;2022-11-14T14:26:01;10.90;99.90
13806;DHT22;6974;53.606;9.872;2022-11-14T14:28:38;10.90;99.90
13806;DHT22;6974;53.606;9.872;2022-11-14T14:31:11;10.80;99.90
13806;DHT22;6974;53.606;9.872;2022-11-14T14:33:40;10.80;99.90
13806;DHT22;6974;53.606;9.872;2022-11-14T14:36:17;10.80;99.90
13806;DHT22;6974;53.606;9.872;2022-11-14T14:38:44;10.80;99.90
13806;DHT22;6974;53.606;9.872;2022-11-14T14:41:13;10.80;99.90
13806;DHT22;6974;53.606;9.872;2022-11-14T14:43:42;10.80;99.90
13806;DHT22;6974;53.606;9.872;2022-11-14T14:46:14;10.80;99.90
13806;DHT22;6974;53.606;9.872;2022-11-14T14:48:43;10.80;99.90
13806;DHT22;6974;53.606;9.872;2022-11-14T14:51:13;10.80;99.90
13806;DHT22;6974;53.606;9.872;2022-11-14T14:53:50;10.70;99.90
13806;DHT22;6974;53.606;9.872;2022-11-14T14:56:20;10.70;99.90
13806;DHT22;6974;53.606;9.872;2022-11-14T14:58:49;10.70;99.90
13806;DHT22;6974;53.606;9.872;2022-11-14T15:01:17;10.70;99.90
13806;DHT22;6974;53.606;9.872;2022-11-14T15:03:48;10.60;99.90
13806;DHT22;6974;53.606;9.872;2022-11-14T15:06:22;10.70;99.90
13806;DHT22;6974;53.606;9.872;2022-11-14T15:08:55;10.70;99.90
13806;DHT22;6974;53.606;9.872;2022-11-14T15:11:22;10.60;99.90
13806;DHT22;6974;53.606;9.872;2022-11-14T15:13:52;10.60;99.90
13806;DHT22;6974;53.606;9.872;2022-11-14T15:16:20;10.60;99.90
13806;DHT22;6974;53.606;9.872;2022-11-14T15:18:49;10.60;99.90
13806;DHT22;6974;53.606;9.872;2022-11-14T15:21:25;10.50;99.90
13806;DHT22;6974;53.606;9.872;2022-11-14T15:24:01;10.60;99.90
13806;DHT22;6974;53.606;9.872;2022-11-14T15:26:29;10.60;99.90
13806;DHT22;6974;53.606;9.872;2022-11-14T15:29:09;10.60;99.90
13806;DHT22;6974;53.606;9.872;2022-11-14T15:31:44;10.50;99.90
13806;DHT22;6974;53.606;9.872;2022-11-14T15:34:28;10.50;99.90
13806;DHT22;6974;53.606;9.872;2022-11-14T15:37:19;10.40;99.90
13806;DHT22;6974;53.606;9.872;2022-11-14T15:39:46;10.40;99.90
13806;DHT22;6974;53.606;9.872;2022-11-14T15:42:15;10.30;99.90
13806;DHT22;6974;53.606;9.872;2022-11-14T15:44:44;10.40;99.90
13806;DHT22;6974;53.606;9.872;2022-11-14T15:47:16;10.30;99.90
13806;DHT22;6974;53.606;9.872;2022-11-14T15:49:56;10.20;99.90
13806;DHT22;6974;53.606;9.872;2022-11-14T15:52:26;10.30;99.90
13806;DHT22;6974;53.606;9.872;2022-11-14T15:54:53;10.30;99.90
13806;DHT22;6974;53.606;9.872;2022-11-14T15:57:20;10.30;99.90
13806;DHT22;6974;53.606;9.872;2022-11-14T15:59:47;10.30;99.90
13806;DHT22;6974;53.606;9.872;2022-11-14T16:02:16;10.30;99.90
13806;DHT22;6974;53.606;9.872;2022-11-14T16:04:44;10.30;99.90
13806;DHT22;6974;53.606;9.872;2022-11-14T16:07:14;10.20;99.90
13806;DHT22;6974;53.606;9.872;2022-11-14T16:09:41;10.20;99.90
13806;DHT22;6974;53.606;9.872;2022-11-14T16:12:08;10.20;99.90
13806;DHT22;6974;53.606;9.872;2022-11-14T16:14:35;10.20;99.90
13806;DHT22;6974;53.606;9.872;2022-11-14T16:17:03;10.10;99.90
13806;DHT22;6974;53.606;9.872;2022-11-14T16:19:30;10.20;99.90
13806;DHT22;6974;53.606;9.872;2022-11-14T16:21:57;10.10;99.90
13806;DHT22;6974;53.606;9.872;2022-11-14T16:24:29;10.10;99.90
13806;DHT22;6974;53.606;9.872;2022-11-14T16:26:56;10.10;99.90
13806;DHT22;6974;53.606;9.872;2022-11-14T16:29:24;10.10;99.90
13806;DHT22;6974;53.606;9.872;2022-11-14T16:31:51;10.10;99.90